createdAt,value
2023-02-15T00:02:58.291Z,11.90
2023-02-15T00:06:02.227Z,21.80
2023-02-15T00:09:06.607Z,17.87
2023-02-15T00:12:11.669Z,15.97
2023-02-15T00:15:16.947Z,18.73
2023-02-15T00:18:20.777Z,22.33
2023-02-15T00:21:24.368Z,18.77
2023-02-15T00:24:28.327Z,22.20
2023-02-15T00:27:32.009Z,20.37
2023-02-15T00:30:37.182Z,21.57
2023-02-15T00:33:41.766Z,21.67
2023-02-15T00:36:46.347Z,18.60
2023-02-15T00:39:51.575Z,22.07
2023-02-15T00:42:55.361Z,16.47
2023-02-15T00:46:01.474Z,25.03
2023-02-15T00:49:05.878Z,22.23
2023-02-15T00:52:09.531Z,18.23
2023-02-15T00:55:13.129Z,20.57
2023-02-15T00:58:17.517Z,18.50
2023-02-15T01:01:24.704Z,21.13
2023-02-15T01:04:28.468Z,22.87
2023-02-15T01:07:34.364Z,21.30
2023-02-15T01:10:38.461Z,15.37
2023-02-15T01:13:42.837Z,21.93
2023-02-15T01:16:48.043Z,20.67
2023-02-15T01:19:52.493Z,21.63
2023-02-15T01:22:57.336Z,18.70
2023-02-15T01:26:04.392Z,17.50
2023-02-15T01:29:08.201Z,21.57
2023-02-15T01:32:13.335Z,20.37
2023-02-15T01:35:19.618Z,24.47
2023-02-15T01:38:23.943Z,22.13
2023-02-15T01:41:28.411Z,23.57
2023-02-15T01:44:53.192Z,27.27
2023-02-15T01:48:03.154Z,21.30
2023-02-15T01:51:06.957Z,19.50
2023-02-15T01:54:18.781Z,21.33
2023-02-15T01:57:26.547Z,21.90
2023-02-15T02:00:30.707Z,24.73
2023-02-15T02:03:45.706Z,25.50
2023-02-15T02:06:52.477Z,18.43
2023-02-15T02:09:56.288Z,20.67
2023-02-15T02:13:05.708Z,23.63
2023-02-15T02:16:15.565Z,23.50
2023-02-15T02:19:48.350Z,25.43
2023-02-15T02:23:18.328Z,23.67
2023-02-15T02:27:03.962Z,25.47
2023-02-15T02:30:36.687Z,26.37
2023-02-15T02:33:55.642Z,23.00
2023-02-15T02:37:06.499Z,26.93
2023-02-15T02:40:16.807Z,22.87
2023-02-15T02:43:28.904Z,15.63
2023-02-15T02:46:38.553Z,23.60
2023-02-15T02:49:45.936Z,21.13
2023-02-15T02:52:51.856Z,18.33
2023-02-15T02:55:59.387Z,21.83
2023-02-15T02:59:10.104Z,21.07
2023-02-15T03:02:19.637Z,23.17
2023-02-15T03:05:29.692Z,22.43
2023-02-15T03:08:38.292Z,24.50
2023-02-15T03:11:42.084Z,23.87
2023-02-15T03:14:49.161Z,28.30
2023-02-15T03:17:58.261Z,23.53
2023-02-15T03:21:06.232Z,23.50
2023-02-15T03:24:16.307Z,23.30
2023-02-15T03:27:24.971Z,26.10
2023-02-15T03:30:32.234Z,23.93
2023-02-15T03:33:40.878Z,25.70
2023-02-15T03:36:48.941Z,26.27
2023-02-15T03:39:57.950Z,26.60
2023-02-15T03:43:07.554Z,25.73
2023-02-15T03:46:18.145Z,22.77
2023-02-15T03:49:27.276Z,26.53
2023-02-15T03:52:34.894Z,22.03
2023-02-15T03:55:38.715Z,24.40
2023-02-15T03:58:59.716Z,24.57
2023-02-15T04:02:15.863Z,23.70
2023-02-15T04:05:19.707Z,28.83
2023-02-15T04:08:45.433Z,27.73
2023-02-15T04:11:48.086Z,26.20
2023-02-15T04:15:09.115Z,28.60
2023-02-15T04:18:13.160Z,22.53
2023-02-15T04:21:34.659Z,18.60
2023-02-15T04:24:57.006Z,23.07
2023-02-15T04:28:00.653Z,24.20
2023-02-15T04:31:04.224Z,23.77
2023-02-15T04:34:07.975Z,24.20
2023-02-15T04:37:12.586Z,24.47
2023-02-15T04:40:19.717Z,28.13
2023-02-15T04:43:23.507Z,23.27
2023-02-15T04:46:27.498Z,26.27
2023-02-15T04:49:31.065Z,22.17
2023-02-15T04:52:34.632Z,22.97
2023-02-15T04:55:39.676Z,24.30
2023-02-15T04:58:43.425Z,25.37
2023-02-15T05:01:47.034Z,28.17
2023-02-15T05:04:50.534Z,23.27
2023-02-15T05:07:54.257Z,25.33
2023-02-15T05:10:59.861Z,29.40
2023-02-15T05:14:03.414Z,21.97
2023-02-15T05:17:06.976Z,23.03
2023-02-15T05:20:11.732Z,22.73
2023-02-15T05:23:15.615Z,23.37
2023-02-15T05:26:39.747Z,24.83
2023-02-15T05:29:43.312Z,23.77
2023-02-15T05:32:47.127Z,27.00
2023-02-15T05:35:50.921Z,23.57
2023-02-15T05:38:54.580Z,21.87
2023-02-15T05:42:02.728Z,25.23
2023-02-15T05:45:07.351Z,31.37
2023-02-15T05:48:11.164Z,24.20
2023-02-15T05:51:17.090Z,27.10
2023-02-15T05:54:20.646Z,24.43
2023-02-15T05:57:25.701Z,24.27
2023-02-15T06:00:29.434Z,24.67
2023-02-15T06:03:33.121Z,25.43
2023-02-15T06:06:37.105Z,22.23
2023-02-15T06:09:40.853Z,27.83
2023-02-15T06:12:46.463Z,19.40
2023-02-15T06:15:50.325Z,24.60
2023-02-15T06:18:54.087Z,25.60
2023-02-15T06:21:57.884Z,23.80
2023-02-15T06:25:01.723Z,27.13
2023-02-15T06:28:07.247Z,28.87
2023-02-15T06:31:11.457Z,27.37
2023-02-15T06:34:15.322Z,26.90
2023-02-15T06:37:19.087Z,31.70
2023-02-15T06:40:22.984Z,22.97
2023-02-15T06:43:28.128Z,23.37
2023-02-15T06:46:31.923Z,24.00
2023-02-15T06:49:35.612Z,26.27
2023-02-15T06:52:39.464Z,26.90
2023-02-15T06:55:43.282Z,27.73
2023-02-15T06:58:50.608Z,19.40
2023-02-15T07:01:54.449Z,25.47
2023-02-15T07:04:58.268Z,26.83
2023-02-15T07:08:02.251Z,24.40
2023-02-15T07:11:20.566Z,28.03
2023-02-15T07:14:28.118Z,23.27
2023-02-15T07:17:35.924Z,20.17
2023-02-15T07:20:42.746Z,22.43
2023-02-15T07:23:46.495Z,23.07
2023-02-15T07:26:50.195Z,27.83
2023-02-15T07:29:55.401Z,27.40
2023-02-15T07:33:17.375Z,25.63
2023-02-15T07:36:21.316Z,25.20
2023-02-15T07:39:25.035Z,29.53
2023-02-15T07:42:28.736Z,28.10
2023-02-15T07:45:34.364Z,21.17
2023-02-15T07:48:39.444Z,25.50
2023-02-15T07:51:43.361Z,26.20
2023-02-15T07:54:47.130Z,21.63
2023-02-15T07:57:52.108Z,23.90
2023-02-15T08:01:02.987Z,26.47
2023-02-15T08:04:08.780Z,24.33
2023-02-15T08:07:12.566Z,25.37
2023-02-15T08:10:36.329Z,21.80
2023-02-15T08:13:54.816Z,23.83
2023-02-15T08:17:03.897Z,24.43
2023-02-15T08:20:08.810Z,25.93
2023-02-15T08:23:12.594Z,24.03
2023-02-15T08:26:18.110Z,28.50
2023-02-15T08:29:23.614Z,25.43
2023-02-15T08:32:29.264Z,26.33
2023-02-15T08:35:32.922Z,30.93
2023-02-15T08:38:36.806Z,27.33
2023-02-15T08:41:42.354Z,21.63
2023-02-15T08:44:46.235Z,27.17
2023-02-15T08:47:51.478Z,23.67
2023-02-15T08:50:55.321Z,22.77
2023-02-15T08:54:01.151Z,21.23
2023-02-15T08:57:04.952Z,33.23
2023-02-15T09:00:10.213Z,25.00
2023-02-15T09:03:15.503Z,22.37
2023-02-15T09:06:19.883Z,23.30
2023-02-15T09:09:24.302Z,25.33
2023-02-15T09:12:28.042Z,25.93
2023-02-15T09:15:31.878Z,27.10
2023-02-15T09:18:39.101Z,25.50
2023-02-15T09:21:43.280Z,22.23
2023-02-15T09:24:46.948Z,21.70
2023-02-15T09:27:50.787Z,24.27
2023-02-15T09:30:54.651Z,24.53
2023-02-15T09:34:02.049Z,22.10
2023-02-15T09:37:08.067Z,24.17
2023-02-15T09:40:17.739Z,20.57
2023-02-15T09:43:32.333Z,24.77
2023-02-15T09:46:49.869Z,23.50
2023-02-15T09:50:04.471Z,24.23
2023-02-15T09:53:35.508Z,23.90
2023-02-15T09:56:46.206Z,20.80
2023-02-15T09:59:58.815Z,22.43
2023-02-15T10:03:18.825Z,22.23
2023-02-15T10:06:34.450Z,21.10
2023-02-15T10:09:51.415Z,19.87
2023-02-15T10:13:10.815Z,20.90
2023-02-15T10:16:29.219Z,19.33
2023-02-15T10:19:45.073Z,21.03
2023-02-15T10:23:11.208Z,20.47
2023-02-15T10:26:20.842Z,22.67
2023-02-15T10:29:34.364Z,20.80
2023-02-15T10:32:44.102Z,23.60
2023-02-15T10:35:56.486Z,29.63
2023-02-15T10:39:09.962Z,21.53
2023-02-15T10:42:20.160Z,18.00
2023-02-15T10:45:33.354Z,18.80
2023-02-15T10:49:13.857Z,20.00
2023-02-15T10:52:31.722Z,18.67
2023-02-15T10:55:53.444Z,20.57
2023-02-15T10:59:22.851Z,16.53
2023-02-15T11:02:38.531Z,17.63
2023-02-15T11:05:56.130Z,18.00
2023-02-15T11:09:07.441Z,19.27
2023-02-15T11:12:17.571Z,18.87
2023-02-15T11:15:28.687Z,19.40
2023-02-15T11:18:37.040Z,19.30
2023-02-15T11:21:46.012Z,19.17
2023-02-15T11:24:50.254Z,17.27
2023-02-15T11:27:57.070Z,17.83
2023-02-15T11:31:07.877Z,17.53
2023-02-15T11:34:20.071Z,16.83
2023-02-15T11:37:31.288Z,20.97
2023-02-15T11:40:38.558Z,15.70
2023-02-15T11:43:50.641Z,32.17
2023-02-15T11:46:55.214Z,17.13
2023-02-15T11:49:59.939Z,18.70
2023-02-15T11:53:07.027Z,17.53
2023-02-15T11:56:17.592Z,18.23
2023-02-15T11:59:32.738Z,18.73
2023-02-15T12:02:40.035Z,16.63
2023-02-15T12:05:48.108Z,19.17
2023-02-15T12:08:58.380Z,18.73
2023-02-15T12:12:24.338Z,14.83
2023-02-15T12:15:36.497Z,17.97
2023-02-15T12:18:43.009Z,16.23
2023-02-15T12:21:51.695Z,14.97
2023-02-15T12:24:58.778Z,18.27
2023-02-15T12:28:02.620Z,17.27
2023-02-15T12:31:21.447Z,17.10
2023-02-15T12:34:28.440Z,18.53
2023-02-15T12:37:35.992Z,17.57
2023-02-15T12:40:41.416Z,13.63
2023-02-15T12:43:46.478Z,14.00
2023-02-15T12:47:02.099Z,18.53
2023-02-15T12:50:18.190Z,18.70
2023-02-15T12:53:24.628Z,23.13
2023-02-15T12:56:29.998Z,17.50
2023-02-15T12:59:33.736Z,15.00
2023-02-15T13:02:45.359Z,14.80
2023-02-15T13:05:54.378Z,12.23
2023-02-15T13:09:00.832Z,18.30
2023-02-15T13:12:14.511Z,18.37
2023-02-15T13:15:28.943Z,15.17
2023-02-15T13:18:38.942Z,17.17
2023-02-15T13:21:46.755Z,15.43
2023-02-15T13:24:57.173Z,13.97
2023-02-15T13:28:05.077Z,14.57
2023-02-15T13:31:16.518Z,15.97
2023-02-15T13:34:27.397Z,13.73
2023-02-15T13:37:58.125Z,15.17
2023-02-15T13:41:06.604Z,14.83
2023-02-15T13:44:19.657Z,13.90
2023-02-15T13:47:29.585Z,14.87
2023-02-15T13:50:50.975Z,15.43
2023-02-15T13:54:26.367Z,17.00
2023-02-15T13:57:47.092Z,19.37
2023-02-15T14:01:01.848Z,13.77
2023-02-15T14:04:24.496Z,15.90
2023-02-15T14:07:44.466Z,16.10
2023-02-15T14:10:59.164Z,16.27
2023-02-15T14:14:29.821Z,19.93
2023-02-15T14:17:46.910Z,17.00
2023-02-15T14:21:01.909Z,16.33
2023-02-15T14:24:23.587Z,21.30
2023-02-15T14:27:40.569Z,18.27
2023-02-15T14:30:49.470Z,20.57
2023-02-15T14:33:57.751Z,17.83
2023-02-15T14:37:01.933Z,18.27
2023-02-15T14:40:32.276Z,16.50
2023-02-15T14:43:57.368Z,17.10
2023-02-15T14:47:08.619Z,17.37
2023-02-15T14:50:43.917Z,18.40
2023-02-15T14:53:48.580Z,18.00
2023-02-15T14:57:26.445Z,15.33
2023-02-15T15:00:40.767Z,18.43
2023-02-15T15:03:54.221Z,16.10
2023-02-15T15:07:08.086Z,15.83
2023-02-15T15:10:38.951Z,14.07
2023-02-15T15:14:03.043Z,14.80
2023-02-15T15:17:08.004Z,15.83
2023-02-15T15:20:17.659Z,14.27
2023-02-15T15:23:43.783Z,13.77
2023-02-15T15:26:51.994Z,14.77
2023-02-15T15:29:57.430Z,14.80
2023-02-15T15:33:15.728Z,16.40
2023-02-15T15:37:04.457Z,15.97
2023-02-15T15:40:50.470Z,20.33
2023-02-15T15:44:32.466Z,19.50
2023-02-15T15:47:58.762Z,28.53
2023-02-15T15:51:17.150Z,29.73
2023-02-15T15:54:23.247Z,24.17
2023-02-15T15:57:31.289Z,23.77
2023-02-15T16:00:43.279Z,22.87
2023-02-15T16:03:57.464Z,29.50
2023-02-15T16:07:17.148Z,25.23
2023-02-15T16:10:26.011Z,25.87
2023-02-15T16:13:30.161Z,27.00
2023-02-15T16:16:34.226Z,26.87
2023-02-15T16:19:42.638Z,32.77
2023-02-15T16:22:46.830Z,51.30
2023-02-15T16:26:03.763Z,52.60
2023-02-15T16:29:17.124Z,296.73
2023-02-15T16:32:23.826Z,140.67
2023-02-15T16:35:29.135Z,65.70
2023-02-15T16:39:02.347Z,48.47
2023-02-15T16:42:06.688Z,51.83
2023-02-15T16:45:17.378Z,48.03
2023-02-15T16:48:26.267Z,47.70
2023-02-15T16:51:34.647Z,49.90
2023-02-15T16:54:38.684Z,48.80
2023-02-15T16:57:46.466Z,50.40
2023-02-15T17:00:50.597Z,40.67
2023-02-15T17:04:13.899Z,37.03
2023-02-15T17:07:20.682Z,37.13
2023-02-15T17:10:37.656Z,44.80
2023-02-15T17:13:41.770Z,34.73
2023-02-15T17:16:50.603Z,32.03
2023-02-15T17:19:57.302Z,28.77
2023-02-15T17:23:03.137Z,29.13
2023-02-15T17:26:16.662Z,30.70
2023-02-15T17:29:34.956Z,27.63
2023-02-15T17:32:39.411Z,27.03
2023-02-15T17:35:43.088Z,44.27
2023-02-15T17:39:06.605Z,29.07
2023-02-15T17:42:10.342Z,27.43
2023-02-15T17:45:15.429Z,42.33
2023-02-15T17:48:24.319Z,45.53
2023-02-15T17:51:28.227Z,43.40
2023-02-15T17:54:50.808Z,66.83
2023-02-15T17:57:54.556Z,31.23
2023-02-15T18:01:19.277Z,36.60
2023-02-15T18:04:41.112Z,45.97
2023-02-15T18:08:02.162Z,40.77
2023-02-15T18:11:24.536Z,32.97
2023-02-15T18:14:28.363Z,33.10
2023-02-15T18:17:36.325Z,37.07
2023-02-15T18:20:41.995Z,40.23
2023-02-15T18:23:46.128Z,38.40
2023-02-15T18:26:51.837Z,32.10
2023-02-15T18:29:55.608Z,34.43
2023-02-15T18:33:01.161Z,35.60
2023-02-15T18:36:06.944Z,32.40
2023-02-15T18:39:26.060Z,30.83
2023-02-15T18:42:34.593Z,34.93
2023-02-15T18:45:40.298Z,47.87
2023-02-15T18:48:46.545Z,36.10
2023-02-15T18:51:50.466Z,35.90
2023-02-15T18:54:57.554Z,40.67
2023-02-15T18:58:03.229Z,35.63
2023-02-15T19:01:07.236Z,40.40
2023-02-15T19:04:10.966Z,67.80
2023-02-15T19:07:19.901Z,43.83
2023-02-15T19:10:25.901Z,39.07
2023-02-15T19:13:31.280Z,40.43
2023-02-15T19:16:37.883Z,40.33
2023-02-15T19:19:41.872Z,40.40
2023-02-15T19:22:46.954Z,37.83
2023-02-15T19:25:52.704Z,40.27
2023-02-15T19:28:57.887Z,40.17
2023-02-15T19:32:01.984Z,40.90
2023-02-15T19:35:06.553Z,43.10
2023-02-15T19:38:18.869Z,41.47
2023-02-15T19:41:26.364Z,42.57
2023-02-15T19:44:31.636Z,43.60
2023-02-15T19:47:35.352Z,44.63
2023-02-15T19:50:39.192Z,42.87
2023-02-15T19:53:42.940Z,40.93
2023-02-15T19:56:46.752Z,43.93
2023-02-15T19:59:52.095Z,47.47
2023-02-15T20:02:56.269Z,48.30
2023-02-15T20:06:00.098Z,46.53
2023-02-15T20:09:05.403Z,45.67
2023-02-15T20:12:21.091Z,46.43
2023-02-15T20:15:29.031Z,43.83
2023-02-15T20:18:33.031Z,87.33
2023-02-15T20:21:37.410Z,208.57
2023-02-15T20:24:41.233Z,41.53
2023-02-15T20:27:45.021Z,43.53
2023-02-15T20:30:51.060Z,58.00
2023-02-15T20:33:55.404Z,55.17
2023-02-15T20:36:59.452Z,44.57
2023-02-15T20:40:03.192Z,46.63
2023-02-15T20:43:16.571Z,43.90
2023-02-15T20:46:21.807Z,60.63
2023-02-15T20:49:26.714Z,45.97
2023-02-15T20:52:30.480Z,49.77
2023-02-15T20:55:34.301Z,54.57
2023-02-15T20:58:38.733Z,40.53
2023-02-15T21:01:44.131Z,50.27
2023-02-15T21:04:48.114Z,47.73
2023-02-15T21:07:53.134Z,45.03
2023-02-15T21:10:56.982Z,40.27
2023-02-15T21:14:00.704Z,44.07
2023-02-15T21:17:06.092Z,42.23
2023-02-15T21:20:14.683Z,49.57
2023-02-15T21:23:21.501Z,56.40
2023-02-15T21:26:25.304Z,48.90
2023-02-15T21:29:31.072Z,41.57
2023-02-15T21:32:36.960Z,49.33
2023-02-15T21:35:40.983Z,48.03
2023-02-15T21:38:45.523Z,56.17
2023-02-15T21:42:08.575Z,52.37
2023-02-15T21:45:34.066Z,54.63
2023-02-15T21:48:39.283Z,47.33
2023-02-15T21:52:00.423Z,49.40
2023-02-15T21:55:07.413Z,55.87
2023-02-15T21:58:20.443Z,50.47
2023-02-15T22:01:26.410Z,65.70
2023-02-15T22:04:32.481Z,60.23
2023-02-15T22:07:36.260Z,59.90
2023-02-15T22:10:40.393Z,57.67
2023-02-15T22:13:45.319Z,52.10
2023-02-15T22:16:49.171Z,54.40
2023-02-15T22:19:54.510Z,53.27
2023-02-15T22:22:58.385Z,48.97
2023-02-15T22:26:06.418Z,47.37
2023-02-15T22:29:15.260Z,46.20
2023-02-15T22:32:20.491Z,47.27
2023-02-15T22:35:28.159Z,49.23
2023-02-15T22:38:31.974Z,57.17
2023-02-15T22:41:35.752Z,47.73
2023-02-15T22:44:39.758Z,42.90
2023-02-15T22:47:43.547Z,47.23
2023-02-15T22:50:48.790Z,46.53
2023-02-15T22:53:53.999Z,46.77
2023-02-15T22:56:57.805Z,49.67
2023-02-15T23:00:02.041Z,48.07
2023-02-15T23:03:15.100Z,47.90
2023-02-15T23:06:20.414Z,46.30
2023-02-15T23:09:24.076Z,45.93
2023-02-15T23:12:50.456Z,46.40
2023-02-15T23:15:57.289Z,47.73
2023-02-15T23:19:01.083Z,48.13
2023-02-15T23:22:06.327Z,47.83
2023-02-15T23:25:12.304Z,51.33
2023-02-15T23:28:21.387Z,46.03
2023-02-15T23:31:27.768Z,54.17
2023-02-15T23:34:31.886Z,50.73
2023-02-15T23:37:37.010Z,48.37
2023-02-15T23:40:58.130Z,45.47
2023-02-15T23:44:04.980Z,47.73
2023-02-15T23:47:20.005Z,49.87
2023-02-15T23:50:25.863Z,49.00
2023-02-15T23:53:31.457Z,51.10
2023-02-15T23:56:35.267Z,48.17
2023-02-15T23:59:46.828Z,46.53
